Time;durP1;ratioP1;P1;durP2;ratioP2;P2;SDS_P1;SDS_P2;PMS_P1;PMS_P2;Temp;Humidity;BMP_temperature;BMP_pressure;BME280_temperature;BME280_humidity;BME280_pressure;Samples;Min_cycle;Max_cycle;Signal;HPM_P1;HPM_P2
2021/06/03 00:02:15;;;;;;;25.80;24.00;;;;;;;;;;5034585;28;20447;-82
2021/06/03 00:04:43;;;;;;;24.90;23.50;;;;;;;;;;5034946;28;20417;-83
2021/06/03 00:07:10;;;;;;;25.43;23.90;;;;;;;;;;5034597;28;20435;-83
2021/06/03 00:09:37;;;;;;;25.67;23.83;;;;;;;;;;5034528;28;20497;-83
2021/06/03 00:12:04;;;;;;;25.60;24.00;;;;;;;;;;5034480;28;20442;-82
2021/06/03 00:14:31;;;;;;;25.60;23.90;;;;;;;;;;5034773;28;20453;-82
2021/06/03 00:16:58;;;;;;;24.97;23.47;;;;;;;;;;5034775;28;20810;-83
2021/06/03 00:19:27;;;;;;;26.60;25.00;;;;;;;;;;5033819;28;20421;-83
2021/06/03 00:21:54;;;;;;;24.73;23.27;;;;;;;;;;5034342;28;20438;-81
2021/06/03 00:24:21;;;;;;;24.90;23.50;;;;;;;;;;5034460;28;20420;-81
2021/06/03 00:26:48;;;;;;;24.83;23.37;;;;;;;;;;5034587;28;20408;-82
2021/06/03 00:29:16;;;;;;;25.67;23.90;;;;;;;;;;5034149;28;20475;-81
2021/06/03 00:31:43;;;;;;;24.43;22.83;;;;;;;;;;5034491;28;20828;-81
2021/06/03 00:34:10;;;;;;;24.00;22.70;;;;;;;;;;5033240;28;20472;-81
2021/06/03 00:36:38;;;;;;;24.43;23.07;;;;;;;;;;5033746;28;20974;-81
2021/06/03 00:39:06;;;;;;;24.90;23.30;;;;;;;;;;5034151;28;20777;-81
2021/06/03 00:41:33;;;;;;;23.83;22.50;;;;;;;;;;5034303;28;20424;-81
2021/06/03 00:44:01;;;;;;;24.10;22.70;;;;;;;;;;5032573;28;20449;-81
2021/06/03 00:46:28;;;;;;;24.27;22.73;;;;;;;;;;5034072;28;20840;-81
2021/06/03 00:48:55;;;;;;;23.80;22.30;;;;;;;;;;5034561;28;20438;-81
2021/06/03 00:51:24;;;;;;;24.00;22.60;;;;;;;;;;5033737;28;20493;-81
2021/06/03 00:53:52;;;;;;;24.10;22.70;;;;;;;;;;5033827;28;20418;-81
2021/06/03 00:56:19;;;;;;;25.07;23.57;;;;;;;;;;5034116;28;20420;-81
2021/06/03 00:58:46;;;;;;;25.43;24.00;;;;;;;;;;5034191;28;20443;-81
2021/06/03 01:01:13;;;;;;;24.90;23.57;;;;;;;;;;5033710;28;20413;-81
2021/06/03 01:03:40;;;;;;;25.40;24.00;;;;;;;;;;5033867;28;20412;-81
2021/06/03 01:06:08;;;;;;;25.90;24.10;;;;;;;;;;5032524;28;20447;-81
2021/06/03 01:08:37;;;;;;;26.57;24.97;;;;;;;;;;5034292;28;20428;-81
2021/06/03 01:11:08;;;;;;;25.20;23.70;;;;;;;;;;5033545;28;20481;-81
2021/06/03 01:13:45;;;;;;;24.70;23.30;;;;;;;;;;5033510;28;20437;-80
2021/06/03 01:16:13;;;;;;;24.70;23.30;;;;;;;;;;5034035;28;20445;-81
2021/06/03 01:18:41;;;;;;;26.43;24.63;;;;;;;;;;5033797;28;20500;-81
2021/06/03 01:21:10;;;;;;;25.60;24.10;;;;;;;;;;5033871;28;20441;-81
2021/06/03 01:23:39;;;;;;;25.17;23.33;;;;;;;;;;5033722;28;20451;-81
2021/06/03 01:26:08;;;;;;;25.07;23.67;;;;;;;;;;5033475;28;20439;-80
2021/06/03 01:28:35;;;;;;;24.70;23.20;;;;;;;;;;5033829;28;20470;-82
2021/06/03 01:31:03;;;;;;;24.33;22.83;;;;;;;;;;5035316;28;20481;-80
2021/06/03 01:33:31;;;;;;;25.50;24.00;;;;;;;;;;5037612;28;20445;-81
2021/06/03 01:35:59;;;;;;;24.90;23.10;;;;;;;;;;5037725;28;20411;-81
2021/06/03 01:38:27;;;;;;;24.13;22.63;;;;;;;;;;5037458;28;20497;-81
2021/06/03 01:40:55;;;;;;;24.20;22.80;;;;;;;;;;5036232;28;20424;-80
2021/06/03 01:43:24;;;;;;;24.40;23.07;;;;;;;;;;5037650;28;20431;-80
2021/06/03 01:45:51;;;;;;;25.23;23.63;;;;;;;;;;5037517;28;20397;-81
2021/06/03 01:48:19;;;;;;;24.77;23.37;;;;;;;;;;5037078;28;20472;-81
2021/06/03 01:50:48;;;;;;;24.70;23.20;;;;;;;;;;5037377;28;20463;-81
2021/06/03 01:53:15;;;;;;;24.67;23.27;;;;;;;;;;5037110;28;20448;-82
2021/06/03 01:55:42;;;;;;;24.40;23.03;;;;;;;;;;5037467;28;20416;-81
2021/06/03 01:58:09;;;;;;;23.77;22.47;;;;;;;;;;5037311;28;20440;-81
2021/06/03 02:00:38;;;;;;;24.60;23.20;;;;;;;;;;5037428;28;20421;-81
2021/06/03 02:03:05;;;;;;;25.27;23.87;;;;;;;;;;5037189;28;20415;-81
2021/06/03 02:05:32;;;;;;;25.00;23.50;;;;;;;;;;5037187;28;20445;-80
2021/06/03 02:07:59;;;;;;;23.90;22.53;;;;;;;;;;5035984;28;20441;-81
2021/06/03 02:10:27;;;;;;;23.83;22.53;;;;;;;;;;5036614;28;20490;-81
2021/06/03 02:12:55;;;;;;;23.27;21.90;;;;;;;;;;5037047;28;20446;-81
2021/06/03 02:15:23;;;;;;;24.70;23.40;;;;;;;;;;5035627;28;20891;-80
2021/06/03 02:17:54;;;;;;;24.20;22.80;;;;;;;;;;5035636;28;20512;-80
2021/06/03 02:20:24;;;;;;;24.40;23.00;;;;;;;;;;5036477;28;20424;-81
2021/06/03 02:22:53;;;;;;;25.30;23.67;;;;;;;;;;5036660;28;20889;-81
2021/06/03 02:25:20;;;;;;;24.23;22.87;;;;;;;;;;5036841;28;20418;-80
2021/06/03 02:27:48;;;;;;;23.57;22.13;;;;;;;;;;5036802;28;20474;-81
2021/06/03 02:30:15;;;;;;;24.97;23.57;;;;;;;;;;5036361;28;21004;-81
2021/06/03 02:32:42;;;;;;;23.57;22.37;;;;;;;;;;5036111;28;20455;-81
2021/06/03 02:35:12;;;;;;;25.13;23.60;;;;;;;;;;5036632;28;20411;-81
2021/06/03 02:37:40;;;;;;;23.20;21.90;;;;;;;;;;5036353;28;20417;-81
2021/06/03 02:40:09;;;;;;;24.70;22.93;;;;;;;;;;5036323;28;20437;-81
2021/06/03 02:42:36;;;;;;;24.80;23.30;;;;;;;;;;5035809;28;20991;-81
2021/06/03 02:45:04;;;;;;;24.80;23.40;;;;;;;;;;5036443;28;20473;-81
2021/06/03 02:47:31;;;;;;;24.03;22.73;;;;;;;;;;5036142;28;20839;-80
2021/06/03 02:49:58;;;;;;;24.30;22.90;;;;;;;;;;5036183;28;20479;-80
2021/06/03 02:52:27;;;;;;;24.67;23.10;;;;;;;;;;5035950;28;20897;-80
2021/06/03 02:54:53;;;;;;;24.13;22.83;;;;;;;;;;5036255;28;20971;-80
2021/06/03 02:57:20;;;;;;;24.40;23.00;;;;;;;;;;5036155;28;20447;-80
2021/06/03 02:59:47;;;;;;;24.83;23.33;;;;;;;;;;5035890;28;20452;-81
2021/06/03 03:02:14;;;;;;;23.97;22.67;;;;;;;;;;5036052;28;20434;-80
2021/06/03 03:04:41;;;;;;;24.63;22.93;;;;;;;;;;5035731;28;20416;-81
2021/06/03 03:07:08;;;;;;;24.20;22.80;;;;;;;;;;5035853;28;20778;-80
2021/06/03 03:09:36;;;;;;;24.40;23.00;;;;;;;;;;5035747;28;20477;-81
2021/06/03 03:12:04;;;;;;;23.70;22.40;;;;;;;;;;5035681;28;20445;-80
2021/06/03 03:14:31;;;;;;;24.83;23.43;;;;;;;;;;5035863;28;20459;-81
2021/06/03 03:16:58;;;;;;;24.30;22.90;;;;;;;;;;5035884;28;20447;-80
2021/06/03 03:19:25;;;;;;;25.53;23.60;;;;;;;;;;5035531;28;20492;-80
2021/06/03 03:21:51;;;;;;;25.27;23.63;;;;;;;;;;5035827;28;20407;-81
2021/06/03 03:24:18;;;;;;;25.37;23.27;;;;;;;;;;5035970;28;20405;-84
2021/06/03 03:26:47;;;;;;;24.60;23.20;;;;;;;;;;5035688;28;20451;-83
2021/06/03 03:29:14;;;;;;;24.50;23.00;;;;;;;;;;5035910;28;20419;-83
2021/06/03 03:31:41;;;;;;;24.83;23.30;;;;;;;;;;5035578;28;20469;-83
2021/06/03 03:34:07;;;;;;;24.23;22.73;;;;;;;;;;5035468;28;20980;-83
2021/06/03 03:36:34;;;;;;;24.33;22.70;;;;;;;;;;5035391;28;20471;-83
2021/06/03 03:39:01;;;;;;;24.83;23.30;;;;;;;;;;5035842;28;20470;-82
2021/06/03 03:41:29;;;;;;;23.53;22.23;;;;;;;;;;5035395;28;20420;-83
2021/06/03 03:43:57;;;;;;;23.13;21.73;;;;;;;;;;5035649;28;20449;-83
2021/06/03 03:46:24;;;;;;;25.53;23.57;;;;;;;;;;5033894;28;20436;-81
2021/06/03 03:48:51;;;;;;;25.63;23.50;;;;;;;;;;5035347;28;20454;-83
2021/06/03 03:51:18;;;;;;;24.30;22.90;;;;;;;;;;5035390;28;20809;-83
2021/06/03 03:53:45;;;;;;;24.33;22.93;;;;;;;;;;5033199;28;20784;-83
2021/06/03 03:56:12;;;;;;;23.67;22.27;;;;;;;;;;5035669;28;20421;-85
2021/06/03 03:58:41;;;;;;;24.73;23.33;;;;;;;;;;5035116;28;20424;-86
2021/06/03 04:01:09;;;;;;;23.13;21.83;;;;;;;;;;5035126;28;20477;-86
2021/06/03 04:03:36;;;;;;;23.10;21.80;;;;;;;;;;5035140;28;20454;-83
2021/06/03 04:06:03;;;;;;;24.37;22.83;;;;;;;;;;5035018;28;20436;-83
2021/06/03 04:08:30;;;;;;;24.07;22.77;;;;;;;;;;5034825;28;20407;-83
2021/06/03 04:10:57;;;;;;;27.00;25.60;;;;;;;;;;5035111;28;20463;-80
2021/06/03 04:13:25;;;;;;;24.30;22.90;;;;;;;;;;5034961;28;20777;-84
2021/06/03 04:15:52;;;;;;;25.27;23.97;;;;;;;;;;5035075;28;20773;-84
2021/06/03 04:18:20;;;;;;;25.60;24.20;;;;;;;;;;5034829;28;20462;-85
2021/06/03 04:20:47;;;;;;;25.20;23.80;;;;;;;;;;5034857;28;20427;-83
2021/06/03 04:23:14;;;;;;;24.10;22.90;;;;;;;;;;5033856;28;20469;-83
2021/06/03 04:25:41;;;;;;;26.27;24.50;;;;;;;;;;5034682;28;20921;-83
2021/06/03 04:28:08;;;;;;;24.80;23.30;;;;;;;;;;5034901;28;20432;-84
2021/06/03 04:30:35;;;;;;;25.87;24.37;;;;;;;;;;5033527;28;20472;-83
2021/06/03 04:33:02;;;;;;;26.10;24.70;;;;;;;;;;5034671;28;20486;-83
2021/06/03 04:35:31;;;;;;;23.90;22.50;;;;;;;;;;5034012;28;20933;-83
2021/06/03 04:37:58;;;;;;;23.53;22.03;;;;;;;;;;5034775;28;20424;-83
2021/06/03 04:40:25;;;;;;;23.67;22.37;;;;;;;;;;5034480;28;20444;-84
2021/06/03 04:42:53;;;;;;;23.10;21.80;;;;;;;;;;5034314;28;20442;-84
2021/06/03 04:45:20;;;;;;;23.47;22.03;;;;;;;;;;5034615;28;20416;-84
2021/06/03 04:47:48;;;;;;;23.57;22.27;;;;;;;;;;5034089;28;20445;-84
2021/06/03 04:50:16;;;;;;;23.97;22.43;;;;;;;;;;5034157;28;20455;-84
2021/06/03 04:52:44;;;;;;;23.43;22.13;;;;;;;;;;5034500;28;20444;-84
2021/06/03 04:55:13;;;;;;;24.20;22.60;;;;;;;;;;5034440;28;20403;-83
2021/06/03 04:57:40;;;;;;;23.93;22.63;;;;;;;;;;5034517;28;20433;-84
2021/06/03 05:00:09;;;;;;;24.70;23.40;;;;;;;;;;5034186;28;20449;-83
2021/06/03 05:02:36;;;;;;;26.13;24.63;;;;;;;;;;5034174;28;20502;-83
2021/06/03 05:05:02;;;;;;;23.80;22.30;;;;;;;;;;5034083;28;20754;-83
2021/06/03 05:07:29;;;;;;;23.53;21.97;;;;;;;;;;5033998;28;20447;-83
2021/06/03 05:09:58;;;;;;;23.83;22.33;;;;;;;;;;5033690;28;20498;-84
2021/06/03 05:12:25;;;;;;;24.43;22.90;;;;;;;;;;5034237;28;20445;-84
2021/06/03 05:14:52;;;;;;;23.77;22.27;;;;;;;;;;5033970;28;20445;-84
2021/06/03 05:17:19;;;;;;;23.30;22.00;;;;;;;;;;5034189;28;20967;-83
2021/06/03 05:19:46;;;;;;;24.77;23.40;;;;;;;;;;5034281;28;20439;-86
2021/06/03 05:22:13;;;;;;;24.57;23.17;;;;;;;;;;5034287;28;20451;-85
2021/06/03 05:24:39;;;;;;;23.10;21.90;;;;;;;;;;5034011;28;20419;-85
2021/06/03 05:27:09;;;;;;;24.63;23.33;;;;;;;;;;5033891;28;20507;-85
2021/06/03 05:29:36;;;;;;;25.47;23.77;;;;;;;;;;5034212;28;20450;-86
2021/06/03 05:32:03;;;;;;;24.10;22.80;;;;;;;;;;5033697;28;20542;-86
2021/06/03 05:34:30;;;;;;;24.47;23.07;;;;;;;;;;5034167;28;20467;-88
2021/06/03 05:36:58;;;;;;;24.47;22.77;;;;;;;;;;5034382;28;20444;-87
2021/06/03 05:39:25;;;;;;;24.83;23.50;;;;;;;;;;5033996;28;20936;-87
2021/06/03 05:41:52;;;;;;;24.90;23.57;;;;;;;;;;5034024;28;20486;-86
2021/06/03 05:44:20;;;;;;;23.80;22.53;;;;;;;;;;5033896;28;20444;-85
2021/06/03 05:46:47;;;;;;;23.77;22.37;;;;;;;;;;5033912;28;20831;-86
2021/06/03 05:49:14;;;;;;;23.10;21.80;;;;;;;;;;5034076;28;20436;-82
2021/06/03 05:51:41;;;;;;;24.43;22.70;;;;;;;;;;5032802;28;20496;-84
2021/06/03 05:54:08;;;;;;;23.00;21.70;;;;;;;;;;5034063;28;20438;-85
2021/06/03 05:56:35;;;;;;;24.10;22.70;;;;;;;;;;5034794;28;20414;-83
2021/06/03 05:59:02;;;;;;;23.67;22.40;;;;;;;;;;5033895;28;20435;-86
2021/06/03 06:01:31;;;;;;;24.80;23.30;;;;;;;;;;5033586;28;20406;-84
2021/06/03 06:04:12;;;;;;;23.40;21.90;;;;;;;;;;5033616;28;20485;-85
2021/06/03 06:06:38;;;;;;;24.30;22.80;;;;;;;;;;5033601;28;20454;-86
2021/06/03 06:09:07;;;;;;;23.67;22.27;;;;;;;;;;5033503;28;20478;-84
2021/06/03 06:11:35;;;;;;;23.50;22.20;;;;;;;;;;5033698;28;20515;-79
2021/06/03 06:14:02;;;;;;;24.20;22.60;;;;;;;;;;5034012;28;20538;-83
2021/06/03 06:16:29;;;;;;;24.23;22.70;;;;;;;;;;5034044;28;20429;-85
2021/06/03 06:18:57;;;;;;;24.20;22.80;;;;;;;;;;5036230;28;20443;-85
2021/06/03 06:21:25;;;;;;;23.43;22.03;;;;;;;;;;5036991;28;20443;-83
2021/06/03 06:23:52;;;;;;;24.00;22.70;;;;;;;;;;5036719;28;20429;-83
2021/06/03 06:26:20;;;;;;;24.87;23.27;;;;;;;;;;5035675;28;20426;-83
2021/06/03 06:28:47;;;;;;;23.80;22.40;;;;;;;;;;5036958;28;20447;-87
2021/06/03 06:31:14;;;;;;;24.00;22.67;;;;;;;;;;5036879;28;20943;-88
2021/06/03 06:33:41;;;;;;;23.47;22.10;;;;;;;;;;5036985;28;20934;-88
2021/06/03 06:36:10;;;;;;;23.60;22.33;;;;;;;;;;5035754;28;20418;-87
2021/06/03 06:38:37;;;;;;;22.40;21.10;;;;;;;;;;5036769;28;20443;-86
2021/06/03 06:41:04;;;;;;;24.07;22.87;;;;;;;;;;5036994;28;20884;-88
2021/06/03 06:43:32;;;;;;;23.73;22.43;;;;;;;;;;5036711;28;20443;-86
2021/06/03 06:45:59;;;;;;;23.30;22.00;;;;;;;;;;5036888;28;20438;-87
2021/06/03 06:48:26;;;;;;;22.43;21.13;;;;;;;;;;5036752;28;20472;-88
2021/06/03 06:50:53;;;;;;;24.20;22.73;;;;;;;;;;5036769;28;20856;-88
2021/06/03 06:53:22;;;;;;;23.60;22.30;;;;;;;;;;5036632;28;20447;-87
2021/06/03 06:55:49;;;;;;;23.03;21.83;;;;;;;;;;5036702;28;20424;-87
2021/06/03 06:58:17;;;;;;;23.43;22.03;;;;;;;;;;5036802;28;20469;-87
2021/06/03 07:00:44;;;;;;;23.90;22.50;;;;;;;;;;5035590;28;20904;-89
2021/06/03 07:03:11;;;;;;;24.53;23.13;;;;;;;;;;5036457;28;20413;-88
2021/06/03 07:05:39;;;;;;;24.30;22.73;;;;;;;;;;5036713;28;20440;-89
2021/06/03 07:08:06;;;;;;;23.70;22.40;;;;;;;;;;5036329;28;20415;-90
2021/06/03 07:10:37;;;;;;;23.90;22.50;;;;;;;;;;5036182;28;20481;-90
2021/06/03 07:13:05;;;;;;;24.50;22.87;;;;;;;;;;5036208;28;20455;-88
2021/06/03 07:15:32;;;;;;;23.67;22.27;;;;;;;;;;5036421;28;20421;-88
2021/06/03 07:17:59;;;;;;;22.77;21.33;;;;;;;;;;5036180;28;20421;-87
2021/06/03 07:20:26;;;;;;;23.40;21.80;;;;;;;;;;5035167;28;20785;-87
2021/06/03 07:22:54;;;;;;;22.67;21.47;;;;;;;;;;5036271;28;20429;-86
2021/06/03 07:25:22;;;;;;;22.47;21.10;;;;;;;;;;5036307;28;20426;-84
2021/06/03 07:27:50;;;;;;;22.93;21.63;;;;;;;;;;5035738;28;20466;-86
2021/06/03 07:30:19;;;;;;;22.23;21.03;;;;;;;;;;5036456;28;20481;-87
2021/06/03 07:32:46;;;;;;;23.23;21.40;;;;;;;;;;5036064;28;20432;-88
2021/06/03 07:35:14;;;;;;;23.10;21.73;;;;;;;;;;5035936;28;20490;-88
2021/06/03 07:37:42;;;;;;;22.70;21.40;;;;;;;;;;5035929;28;20443;-88
2021/06/03 07:40:10;;;;;;;24.13;22.70;;;;;;;;;;5036024;28;20410;-87
2021/06/03 07:42:37;;;;;;;23.73;21.93;;;;;;;;;;5036177;28;20440;-88
2021/06/03 07:45:08;;;;;;;22.70;21.47;;;;;;;;;;5034366;28;20977;-87
2021/06/03 07:47:35;;;;;;;23.03;21.77;;;;;;;;;;5036280;28;20548;-87
2021/06/03 07:50:02;;;;;;;24.13;22.63;;;;;;;;;;5035617;28;20455;-88
2021/06/03 07:52:29;;;;;;;22.73;21.23;;;;;;;;;;5036062;28;20411;-88
2021/06/03 07:54:56;;;;;;;23.57;22.27;;;;;;;;;;5035528;28;20892;-87
2021/06/03 07:57:23;;;;;;;22.33;21.10;;;;;;;;;;5034325;28;20917;-87
2021/06/03 07:59:50;;;;;;;23.60;22.20;;;;;;;;;;5035751;28;20415;-87
2021/06/03 08:02:18;;;;;;;22.97;21.60;;;;;;;;;;5035414;28;20443;-89
2021/06/03 08:04:45;;;;;;;22.93;21.73;;;;;;;;;;5035414;28;20425;-90
2021/06/03 08:07:12;;;;;;;24.30;22.80;;;;;;;;;;5035362;28;20459;-87
2021/06/03 08:09:39;;;;;;;23.17;21.87;;;;;;;;;;5035114;28;20487;-86
2021/06/03 08:12:06;;;;;;;23.37;21.97;;;;;;;;;;5035159;28;20480;-84
2021/06/03 08:14:33;;;;;;;23.30;21.60;;;;;;;;;;5035132;28;20456;-85
2021/06/03 08:17:00;;;;;;;23.30;22.00;;;;;;;;;;5035210;28;20443;-86
2021/06/03 08:19:31;;;;;;;23.90;22.20;;;;;;;;;;5035082;28;20513;-87
2021/06/03 08:21:58;;;;;;;22.73;21.43;;;;;;;;;;5035046;28;20443;-87
2021/06/03 08:24:25;;;;;;;22.20;21.00;;;;;;;;;;5034059;28;20442;-87
2021/06/03 08:26:53;;;;;;;22.90;21.30;;;;;;;;;;5034564;28;20473;-85
2021/06/03 08:29:20;;;;;;;23.60;22.30;;;;;;;;;;5035116;28;20536;-86
2021/06/03 08:31:48;;;;;;;23.60;22.30;;;;;;;;;;5034135;28;20462;-88
2021/06/03 08:34:15;;;;;;;22.90;21.57;;;;;;;;;;5034655;28;20429;-84
2021/06/03 08:36:44;;;;;;;23.37;21.83;;;;;;;;;;5035217;28;20430;-85
2021/06/03 08:39:11;;;;;;;24.10;22.53;;;;;;;;;;5034375;28;20767;-83
2021/06/03 08:41:38;;;;;;;23.63;22.23;;;;;;;;;;5034481;28;20418;-83
2021/06/03 08:44:06;;;;;;;23.97;22.57;;;;;;;;;;5034815;28;20419;-87
2021/06/03 08:46:33;;;;;;;23.53;21.90;;;;;;;;;;5033514;28;20467;-89
2021/06/03 08:49:01;;;;;;;23.23;21.90;;;;;;;;;;5034510;28;20486;-84
2021/06/03 08:51:28;;;;;;;23.37;21.70;;;;;;;;;;5033747;28;20495;-82
2021/06/03 08:53:57;;;;;;;24.33;22.93;;;;;;;;;;5033223;28;20411;-87
2021/06/03 08:56:24;;;;;;;23.33;22.03;;;;;;;;;;5034236;28;21029;-89
2021/06/03 08:58:52;;;;;;;23.53;22.20;;;;;;;;;;5034653;28;20437;-90
2021/06/03 09:01:19;;;;;;;23.03;21.73;;;;;;;;;;5034627;28;20430;-91
2021/06/03 09:03:47;;;;;;;23.43;22.03;;;;;;;;;;5034322;28;20415;-89
2021/06/03 09:06:15;;;;;;;23.37;21.97;;;;;;;;;;5034173;28;20403;-89
2021/06/03 09:08:43;;;;;;;23.70;22.33;;;;;;;;;;5034225;28;20420;-89
2021/06/03 09:11:14;;;;;;;23.23;21.93;;;;;;;;;;5034038;28;20443;-89
2021/06/03 09:13:42;;;;;;;24.50;22.83;;;;;;;;;;5032068;28;20445;-90
2021/06/03 09:16:14;;;;;;;23.90;22.60;;;;;;;;;;5032964;28;20451;-89
2021/06/03 09:18:41;;;;;;;23.33;22.03;;;;;;;;;;5034351;28;20436;-89
2021/06/03 09:21:09;;;;;;;24.47;23.03;;;;;;;;;;5034202;28;20430;-90
2021/06/03 09:23:36;;;;;;;24.93;23.37;;;;;;;;;;5034011;28;20406;-90
2021/06/03 09:26:07;;;;;;;24.63;23.33;;;;;;;;;;5033906;28;20913;-90
2021/06/03 09:28:35;;;;;;;23.00;21.70;;;;;;;;;;5034183;28;20406;-90
2021/06/03 09:31:13;;;;;;;24.83;23.23;;;;;;;;;;5033892;28;20510;-90
2021/06/03 09:33:45;;;;;;;22.80;21.40;;;;;;;;;;5033633;28;20443;-90
2021/06/03 09:36:13;;;;;;;24.03;22.73;;;;;;;;;;5034187;28;20411;-91
2021/06/03 09:38:51;;;;;;;23.07;21.47;;;;;;;;;;5034447;28;20439;-90
2021/06/03 09:41:18;;;;;;;23.77;22.47;;;;;;;;;;5034017;28;20440;-89
2021/06/03 09:43:46;;;;;;;23.00;21.70;;;;;;;;;;5034028;28;20508;-89
2021/06/03 09:46:15;;;;;;;23.90;22.50;;;;;;;;;;5033712;28;20467;-89
2021/06/03 09:48:42;;;;;;;23.80;22.30;;;;;;;;;;5033832;28;20441;-88
2021/06/03 09:51:19;;;;;;;24.10;22.60;;;;;;;;;;5033826;28;20495;-84
2021/06/03 09:53:56;;;;;;;24.23;22.77;;;;;;;;;;5037981;28;20798;-84
2021/06/03 09:56:24;;;;;;;23.40;21.97;;;;;;;;;;5037856;28;20457;-85
2021/06/03 09:58:53;;;;;;;24.23;22.83;;;;;;;;;;5038011;28;20493;-87
2021/06/03 10:01:38;;;;;;;23.20;21.80;;;;;;;;;;5021237;28;20528;-91
2021/06/03 10:04:05;;;;;;;24.40;22.80;;;;;;;;;;5038560;28;20471;-82
2021/06/03 10:06:33;;;;;;;22.53;21.23;;;;;;;;;;5038409;28;20426;-92
2021/06/03 10:09:00;;;;;;;23.83;22.50;;;;;;;;;;5038657;28;20448;-92
2021/06/03 10:11:46;;;;;;;23.00;21.70;;;;;;;;;;5039794;28;20515;-89
2021/06/03 10:14:16;;;;;;;23.70;22.40;;;;;;;;;;5039018;28;20426;-91
2021/06/03 10:16:43;;;;;;;24.17;22.87;;;;;;;;;;5037996;28;20469;-91
2021/06/03 10:19:17;;;;;;;23.97;22.50;;;;;;;;;;5039180;28;20436;-92
2021/06/03 10:21:44;;;;;;;23.10;21.80;;;;;;;;;;5037890;28;20440;-93
2021/06/03 10:24:11;;;;;;;23.90;22.60;;;;;;;;;;5039564;28;20769;-92
2021/06/03 10:26:56;;;;;;;23.33;22.10;;;;;;;;;;5037017;28;20416;-91
2021/06/03 10:29:24;;;;;;;25.13;23.67;;;;;;;;;;5037102;28;20482;-91
2021/06/03 10:31:51;;;;;;;24.17;22.80;;;;;;;;;;5037960;28;20464;-91
2021/06/03 10:34:18;;;;;;;23.67;22.27;;;;;;;;;;5037153;28;20414;-91
2021/06/03 10:36:45;;;;;;;25.13;23.63;;;;;;;;;;5037637;28;20421;-91
2021/06/03 10:39:12;;;;;;;24.27;22.97;;;;;;;;;;5037332;28;20420;-91
2021/06/03 10:41:39;;;;;;;24.80;23.30;;;;;;;;;;5020636;28;20413;-90
2021/06/03 10:44:07;;;;;;;24.53;23.13;;;;;;;;;;5017795;28;20494;-90
2021/06/03 10:46:35;;;;;;;24.97;23.47;;;;;;;;;;5017436;28;20450;-91
2021/06/03 10:49:02;;;;;;;25.23;23.73;;;;;;;;;;5018789;28;20938;-91
2021/06/03 10:51:29;;;;;;;23.50;22.20;;;;;;;;;;5017562;28;20490;-92
2021/06/03 10:53:56;;;;;;;24.03;22.63;;;;;;;;;;5017062;28;20446;-90
2021/06/03 10:56:26;;;;;;;24.47;22.97;;;;;;;;;;5017494;28;20446;-92
2021/06/03 10:58:54;;;;;;;24.03;22.73;;;;;;;;;;5017600;28;20448;-91
2021/06/03 11:01:22;;;;;;;24.60;23.10;;;;;;;;;;5016983;28;20426;-87
2021/06/03 11:03:52;;;;;;;24.23;22.83;;;;;;;;;;5015779;28;20421;-90
2021/06/03 11:06:19;;;;;;;24.00;22.60;;;;;;;;;;5017208;28;20418;-91
2021/06/03 11:08:47;;;;;;;24.30;22.90;;;;;;;;;;5017590;28;20406;-90
2021/06/03 11:11:25;;;;;;;23.93;22.63;;;;;;;;;;5017211;28;20482;-91
2021/06/03 11:14:06;;;;;;;24.60;23.13;;;;;;;;;;5016391;28;20428;-92
2021/06/03 11:16:46;;;;;;;22.80;21.40;;;;;;;;;;5016552;28;20768;-90
2021/06/03 11:19:15;;;;;;;23.50;21.90;;;;;;;;;;5016976;28;20500;-91
2021/06/03 11:21:49;;;;;;;23.80;22.30;;;;;;;;;;5015854;28;20423;-91
2021/06/03 11:24:33;;;;;;;23.50;22.10;;;;;;;;;;5017469;28;20886;-90
2021/06/03 11:27:01;;;;;;;23.80;22.40;;;;;;;;;;5015986;28;20436;-88
2021/06/03 11:29:28;;;;;;;23.43;22.07;;;;;;;;;;5016094;28;20408;-88
2021/06/03 11:32:10;;;;;;;22.53;21.33;;;;;;;;;;5015943;28;20973;-89
2021/06/03 11:34:44;;;;;;;23.80;22.50;;;;;;;;;;5016048;28;20423;-88
2021/06/03 11:37:11;;;;;;;24.43;22.93;;;;;;;;;;5015983;28;20427;-88
2021/06/03 11:39:41;;;;;;;24.20;22.90;;;;;;;;;;5016366;28;20459;-88
2021/06/03 11:42:21;;;;;;;23.90;22.40;;;;;;;;;;5015973;28;20437;-89
2021/06/03 11:45:11;;;;;;;23.87;22.57;;;;;;;;;;5015992;28;20453;-86
2021/06/03 11:47:56;;;;;;;24.30;23.00;;;;;;;;;;5015011;28;20517;-87
2021/06/03 11:50:50;;;;;;;24.90;23.40;;;;;;;;;;5015840;28;20480;-85
2021/06/03 11:53:20;;;;;;;23.97;22.47;;;;;;;;;;4994030;28;20883;-85
2021/06/03 11:55:49;;;;;;;23.00;21.80;;;;;;;;;;4993968;28;20422;-85
2021/06/03 11:58:17;;;;;;;23.77;22.37;;;;;;;;;;4994985;28;20450;-86
2021/06/03 12:00:46;;;;;;;23.63;22.23;;;;;;;;;;4994076;28;20414;-88
2021/06/03 12:03:22;;;;;;;23.83;22.53;;;;;;;;;;4993988;28;20467;-88
2021/06/03 12:05:49;;;;;;;23.30;21.90;;;;;;;;;;5006430;28;20417;-87
2021/06/03 12:08:34;;;;;;;24.37;22.70;;;;;;;;;;5013602;28;20415;-90
2021/06/03 12:11:02;;;;;;;22.03;20.83;;;;;;;;;;5013266;28;20486;-90
2021/06/03 12:13:29;;;;;;;23.20;21.90;;;;;;;;;;5013362;28;20433;-88
2021/06/03 12:15:56;;;;;;;23.63;22.23;;;;;;;;;;5012896;28;20927;-89
2021/06/03 12:18:22;;;;;;;25.10;23.27;;;;;;;;;;5013508;28;20506;-89
2021/06/03 12:20:50;;;;;;;26.47;24.33;;;;;;;;;;5013482;28;20426;-89
2021/06/03 12:23:17;;;;;;;22.57;21.10;;;;;;;;;;5013388;28;20877;-90
2021/06/03 12:25:48;;;;;;;23.30;21.70;;;;;;;;;;5013409;28;20939;-90
2021/06/03 12:28:15;;;;;;;22.00;20.60;;;;;;;;;;5017724;28;20517;-88
2021/06/03 12:30:43;;;;;;;23.40;21.80;;;;;;;;;;5034696;28;20395;-89
2021/06/03 12:33:11;;;;;;;21.70;20.40;;;;;;;;;;5034561;28;20464;-90
2021/06/03 12:35:39;;;;;;;22.47;20.97;;;;;;;;;;5035104;28;20410;-88
2021/06/03 12:38:06;;;;;;;23.10;21.70;;;;;;;;;;5034801;28;20440;-88
2021/06/03 12:40:33;;;;;;;23.23;21.70;;;;;;;;;;5034572;28;20444;-87
2021/06/03 12:43:03;;;;;;;22.87;21.27;;;;;;;;;;5033548;28;20422;-88
2021/06/03 12:45:35;;;;;;;22.87;21.67;;;;;;;;;;5034547;28;20421;-86
2021/06/03 12:48:13;;;;;;;22.63;21.33;;;;;;;;;;5034287;28;20483;-86
2021/06/03 12:50:51;;;;;;;23.80;22.40;;;;;;;;;;5034321;28;20442;-87
2021/06/03 12:53:23;;;;;;;22.20;21.00;;;;;;;;;;5034399;28;20426;-86
2021/06/03 12:55:53;;;;;;;22.57;21.07;;;;;;;;;;5034388;28;20506;-87
2021/06/03 12:58:29;;;;;;;22.33;20.70;;;;;;;;;;5034416;28;20417;-87
2021/06/03 13:00:58;;;;;;;23.87;22.40;;;;;;;;;;5034485;28;20421;-87
2021/06/03 13:03:27;;;;;;;22.77;21.47;;;;;;;;;;5034493;28;20435;-88
2021/06/03 13:06:02;;;;;;;21.90;20.60;;;;;;;;;;5034126;28;20414;-88
2021/06/03 13:08:41;;;;;;;22.63;21.33;;;;;;;;;;5035123;28;20789;-88
2021/06/03 13:11:08;;;;;;;22.00;20.73;;;;;;;;;;5034713;28;20456;-90
2021/06/03 13:13:37;;;;;;;22.40;21.13;;;;;;;;;;5034465;28;20434;-88
2021/06/03 13:16:04;;;;;;;23.37;22.07;;;;;;;;;;5034322;28;20421;-88
2021/06/03 13:18:31;;;;;;;22.47;21.17;;;;;;;;;;5034219;28;20414;-88
2021/06/03 13:20:58;;;;;;;22.83;21.50;;;;;;;;;;5033131;28;20519;-88
2021/06/03 13:23:26;;;;;;;22.13;20.93;;;;;;;;;;5034039;28;20419;-89
2021/06/03 13:25:54;;;;;;;22.37;21.17;;;;;;;;;;5035183;28;20443;-87
2021/06/03 13:28:22;;;;;;;22.93;21.37;;;;;;;;;;5038327;28;20418;-88
2021/06/03 13:30:53;;;;;;;37.63;35.03;;;;;;;;;;5038432;28;20439;-88
2021/06/03 13:33:21;;;;;;;31.23;29.57;;;;;;;;;;5038203;28;20421;-88
2021/06/03 13:35:49;;;;;;;25.40;23.50;;;;;;;;;;5037862;28;20454;-76
2021/06/03 13:38:16;;;;;;;27.17;25.57;;;;;;;;;;5037404;28;20434;-78
2021/06/03 13:40:44;;;;;;;24.07;22.50;;;;;;;;;;5037381;28;20414;-78
2021/06/03 13:43:12;;;;;;;24.33;22.93;;;;;;;;;;5036049;28;20464;-78
2021/06/03 13:45:41;;;;;;;21.57;20.27;;;;;;;;;;5037290;28;20416;-78
2021/06/03 13:48:17;;;;;;;23.13;21.83;;;;;;;;;;5037093;28;20444;-78
2021/06/03 13:50:55;;;;;;;22.87;21.30;;;;;;;;;;5036915;28;20450;-78
2021/06/03 13:53:33;;;;;;;24.20;22.67;;;;;;;;;;5036935;28;20918;-77
2021/06/03 13:56:00;;;;;;;24.13;22.77;;;;;;;;;;5034932;28;20425;-78
2021/06/03 13:58:38;;;;;;;22.40;21.17;;;;;;;;;;5036984;28;20447;-78
2021/06/03 14:01:20;;;;;;;22.20;20.97;;;;;;;;;;5037095;28;20455;-76
2021/06/03 14:03:50;;;;;;;21.83;20.73;;;;;;;;;;5035070;28;20422;-78
2021/06/03 14:06:19;;;;;;;22.77;21.47;;;;;;;;;;5036803;28;20455;-78
2021/06/03 14:08:46;;;;;;;23.43;21.80;;;;;;;;;;5036453;28;20464;-77
2021/06/03 14:11:19;;;;;;;23.10;21.90;;;;;;;;;;5036719;28;20510;-77
2021/06/03 14:13:47;;;;;;;23.17;21.97;;;;;;;;;;5036931;28;20505;-77
2021/06/03 14:16:29;;;;;;;22.43;21.23;;;;;;;;;;5036444;28;20418;-76
2021/06/03 14:19:02;;;;;;;22.30;21.00;;;;;;;;;;5036534;28;20434;-77
2021/06/03 14:21:29;;;;;;;21.93;20.70;;;;;;;;;;5035318;28;20429;-77
2021/06/03 14:23:56;;;;;;;22.40;21.00;;;;;;;;;;5036325;28;20814;-77
2021/06/03 14:26:23;;;;;;;23.07;21.67;;;;;;;;;;5036255;28;20940;-77